Time;durP1;ratioP1;P1;durP2;ratioP2;P2;SDS_P1;SDS_P2;PMS_P1;PMS_P2;Temp;Humidity;BMP_temperature;BMP_pressure;BME280_temperature;BME280_humidity;BME280_pressure;Samples;Min_cycle;Max_cycle;Signal;HPM_P1;HPM_P2
2022/04/03 00:00:58;;;;;;;16.35;7.45;;;256.30;2252.80;;;;;;4957479;28;20042;-80
2022/04/03 00:03:24;;;;;;;15.52;7.90;;;256.20;2252.80;;;;;;4957459;28;20026;-77
2022/04/03 00:05:50;;;;;;;14.40;6.78;;;256.20;2252.80;;;;;;4970213;28;20035;-80
2022/04/03 00:08:16;;;;;;;13.57;7.13;;;256.10;2252.80;;;;;;4973899;28;20232;-83
2022/04/03 00:10:52;;;;;;;11.40;6.45;;;256.10;2252.80;;;;;;4978111;28;20035;-80
2022/04/03 00:13:18;;;;;;;12.35;5.97;;;256.00;2252.80;;;;;;4961147;28;20030;-83
2022/04/03 00:15:48;;;;;;;13.57;5.32;;;256.00;2252.80;;;;;;4960948;28;20026;-79
2022/04/03 00:18:17;;;;;;;11.02;6.72;;;231.30;2252.80;;;;;;4960698;28;20106;-81
2022/04/03 00:20:46;;;;;;;15.60;8.32;;;231.30;2252.80;;;;;;4960883;28;20038;-81
2022/04/03 00:23:13;;;;;;;12.65;5.55;;;231.30;2252.80;;;;;;4960795;28;20030;-83
2022/04/03 00:25:40;;;;;;;9.93;6.72;;;231.30;2252.80;;;;;;4960607;28;20489;-80
2022/04/03 00:28:07;;;;;;;12.00;6.28;;;231.20;2252.80;;;;;;4961048;28;20026;-79
2022/04/03 00:30:34;;;;;;;8.73;5.72;;;231.00;2252.80;;;;;;4961106;28;20410;-81
2022/04/03 00:33:00;;;;;;;10.82;6.80;;;231.00;2252.80;;;;;;4961131;28;20117;-81
2022/04/03 00:35:26;;;;;;;13.52;7.35;;;230.90;2252.80;;;;;;4961152;28;20126;-78
2022/04/03 00:37:52;;;;;;;14.63;8.55;;;230.70;2252.80;;;;;;4961252;28;20402;-82
2022/04/03 00:40:23;;;;;;;14.00;7.80;;;231.30;2252.80;;;;;;4960689;28;20042;-82
2022/04/03 00:42:49;;;;;;;10.95;6.53;;;230.90;2252.80;;;;;;4961124;28;20472;-80
2022/04/03 00:45:16;;;;;;;11.85;7.72;;;230.90;2252.80;;;;;;4960720;28;20019;-79
2022/04/03 00:47:43;;;;;;;10.90;7.30;;;230.80;2252.80;;;;;;4960533;28;20015;-80
2022/04/03 00:50:10;;;;;;;7.57;5.80;;;230.90;2252.80;;;;;;4960592;28;20030;-81
2022/04/03 00:52:37;;;;;;;8.48;5.00;;;230.90;2252.80;;;;;;4960241;28;20109;-83
2022/04/03 00:55:04;;;;;;;8.00;5.60;;;230.90;2252.80;;;;;;4960385;28;20180;-81
2022/04/03 00:57:31;;;;;;;9.07;5.10;;;230.80;2252.80;;;;;;4960506;28;20026;-84
2022/04/03 00:59:58;;;;;;;10.48;4.97;;;230.80;2252.80;;;;;;4960263;28;20518;-81
2022/04/03 01:02:24;;;;;;;8.32;5.85;;;230.90;2252.80;;;;;;4960928;28;20037;-81
2022/04/03 01:04:51;;;;;;;12.07;5.85;;;230.80;2252.80;;;;;;4960790;28;20110;-82
2022/04/03 01:07:17;;;;;;;9.88;5.95;;;230.80;2252.80;;;;;;4960203;28;20022;-83
2022/04/03 01:09:49;;;;;;;8.55;5.30;;;230.70;2252.80;;;;;;4960785;28;20026;-83
2022/04/03 01:12:15;;;;;;;9.10;5.90;;;230.70;2252.80;;;;;;4960375;28;20037;-80
2022/04/03 01:14:46;;;;;;;7.10;5.05;;;205.70;2252.80;;;;;;4960157;28;20027;-81
2022/04/03 01:17:13;;;;;;;7.30;4.93;;;230.70;2252.80;;;;;;4960568;28;20036;-80
2022/04/03 01:19:40;;;;;;;8.90;4.68;;;230.70;2252.80;;;;;;4960034;28;20038;-82
2022/04/03 01:22:07;;;;;;;7.43;4.28;;;230.50;2252.80;;;;;;4960055;28;20019;-83
2022/04/03 01:24:35;;;;;;;8.95;5.32;;;230.60;2252.80;;;;;;4959989;28;20045;-84
2022/04/03 01:27:01;;;;;;;7.53;4.95;;;230.50;2252.80;;;;;;4960179;28;20018;-82
2022/04/03 01:29:27;;;;;;;8.23;4.90;;;230.60;2252.80;;;;;;4960377;28;20375;-81
2022/04/03 01:31:53;;;;;;;6.85;4.43;;;230.50;2252.80;;;;;;4960331;28;20032;-77
2022/04/03 01:34:20;;;;;;;7.95;4.28;;;230.50;2252.80;;;;;;4960099;28;20525;-80
2022/04/03 01:36:47;;;;;;;6.78;4.10;;;230.50;2252.80;;;;;;4959496;28;20027;-81
2022/04/03 01:39:13;;;;;;;6.32;3.88;;;230.50;2252.80;;;;;;4959214;28;20118;-80
2022/04/03 01:41:40;;;;;;;7.05;3.92;;;230.50;2252.80;;;;;;4959373;28;20466;-79
2022/04/03 01:44:08;;;;;;;5.15;3.60;;;230.50;2252.80;;;;;;4959490;28;20019;-81
2022/04/03 01:46:36;;;;;;;5.43;3.40;;;230.40;2252.80;;;;;;4959437;28;20062;-83
2022/04/03 01:49:02;;;;;;;5.85;3.50;;;205.70;2252.80;;;;;;4959044;28;20023;-79
2022/04/03 01:51:28;;;;;;;6.32;3.15;;;230.40;2252.80;;;;;;4959705;28;20347;-82
2022/04/03 01:53:54;;;;;;;4.40;2.85;;;205.70;2252.80;;;;;;4959955;28;20033;-82
2022/04/03 01:56:20;;;;;;;5.18;3.58;;;205.70;2252.80;;;;;;4959449;28;20035;-81
2022/04/03 01:58:46;;;;;;;4.82;3.22;;;205.70;2252.80;;;;;;4959515;28;20031;-82
2022/04/03 02:01:12;;;;;;;9.32;4.22;;;205.70;2252.80;;;;;;4959363;28;20058;-81
2022/04/03 02:03:38;;;;;;;6.03;3.25;;;230.40;2252.80;;;;;;4958948;28;20025;-79
2022/04/03 02:06:03;;;;;;;5.88;3.55;;;205.60;2252.80;;;;;;4959283;28;20023;-81
2022/04/03 02:08:29;;;;;;;7.68;4.05;;;205.50;2252.80;;;;;;4959148;28;20085;-79
2022/04/03 02:10:56;;;;;;;6.22;3.88;;;205.60;2252.80;;;;;;4974757;28;20054;-82
2022/04/03 02:13:22;;;;;;;7.47;4.60;;;205.70;2252.80;;;;;;4958815;28;20022;-82
2022/04/03 02:15:48;;;;;;;5.72;4.47;;;205.60;2252.80;;;;;;4959193;28;20379;-79
2022/04/03 02:18:14;;;;;;;7.50;4.18;;;205.60;2252.80;;;;;;4959334;28;20027;-78
2022/04/03 02:20:40;;;;;;;9.13;4.55;;;205.60;2252.80;;;;;;4959402;28;20438;-80
2022/04/03 02:23:06;;;;;;;9.05;5.10;;;205.60;2252.80;;;;;;4958874;28;20348;-80
2022/04/03 02:25:33;;;;;;;8.43;5.38;;;205.60;2252.80;;;;;;4958684;28;20069;-80
2022/04/03 02:27:59;;;;;;;8.68;5.63;;;205.60;2252.80;;;;;;4958985;28;20019;-82
2022/04/03 02:30:26;;;;;;;10.38;5.03;;;205.60;2252.80;;;;;;4958437;28;20019;-79
2022/04/03 02:32:52;;;;;;;9.55;5.13;;;205.70;2252.80;;;;;;4957959;28;20050;-82
2022/04/03 02:35:18;;;;;;;11.05;6.32;;;230.80;2252.80;;;;;;4958517;28;20395;-82
2022/04/03 02:37:45;;;;;;;9.18;4.93;;;205.70;2252.80;;;;;;4958612;28;20126;-78
2022/04/03 02:40:16;;;;;;;10.20;5.97;;;230.40;2252.80;;;;;;4955689;29;20046;-80
2022/04/03 02:42:42;;;;;;;8.30;5.30;;;205.70;2252.80;;;;;;4955715;29;20023;-82
2022/04/03 02:45:12;;;;;;;9.10;5.80;;;205.50;2252.80;;;;;;4955432;29;20112;-80
2022/04/03 02:47:39;;;;;;;9.07;5.13;;;205.70;2252.80;;;;;;4955638;29;20479;-82
2022/04/03 02:50:07;;;;;;;9.40;6.03;;;205.70;2252.80;;;;;;4955277;29;20019;-78
2022/04/03 02:52:33;;;;;;;8.63;5.28;;;205.50;2252.80;;;;;;4954873;29;20575;-79
2022/04/03 02:54:58;;;;;;;8.15;5.30;;;205.40;2252.80;;;;;;4955046;29;20118;-79
2022/04/03 02:57:25;;;;;;;8.27;4.78;;;205.40;2252.80;;;;;;4979126;28;20011;-78
2022/04/03 02:59:51;;;;;;;9.75;5.85;;;205.30;2252.80;;;;;;4960695;29;20027;-78
2022/04/03 03:02:17;;;;;;;7.07;4.97;;;205.40;2252.80;;;;;;4955534;29;20423;-78
2022/04/03 03:04:43;;;;;;;9.35;5.47;;;205.50;2252.80;;;;;;4955117;29;20086;-79
2022/04/03 03:07:09;;;;;;;8.07;5.57;;;205.70;2252.80;;;;;;4954923;29;20027;-79
2022/04/03 03:09:35;;;;;;;15.90;9.82;;;230.40;2252.80;;;;;;4955513;29;20090;-81
2022/04/03 03:12:02;;;;;;;10.25;7.07;;;230.40;2252.80;;;;;;4955021;29;20534;-83
2022/04/03 03:14:31;;;;;;;11.68;7.28;;;230.40;2252.80;;;;;;4955000;29;20064;-82
2022/04/03 03:16:57;;;;;;;14.40;9.32;;;205.70;2252.80;;;;;;4955177;29;20023;-82
2022/04/03 03:19:23;;;;;;;13.35;6.35;;;205.70;2252.80;;;;;;4955304;29;20015;-77
2022/04/03 03:21:49;;;;;;;9.40;6.50;;;230.40;2252.80;;;;;;4955504;29;20023;-81
2022/04/03 03:24:15;;;;;;;8.13;6.25;;;230.40;2252.80;;;;;;4954962;29;20046;-82
2022/04/03 03:26:41;;;;;;;9.63;6.72;;;230.40;2252.80;;;;;;4954581;29;20065;-77
2022/04/03 03:29:08;;;;;;;10.30;6.10;;;230.40;2252.80;;;;;;4955017;29;20027;-79
2022/04/03 03:31:34;;;;;;;9.27;6.70;;;205.70;2252.80;;;;;;4955077;29;20029;-81
2022/04/03 03:34:00;;;;;;;8.85;6.47;;;205.70;2252.80;;;;;;4954413;29;20110;-81
2022/04/03 03:36:26;;;;;;;8.75;6.82;;;230.40;2252.80;;;;;;4955133;29;20170;-82
2022/04/03 03:38:52;;;;;;;6.25;5.32;;;230.40;2252.80;;;;;;4956880;28;20031;-83
2022/04/03 03:41:18;;;;;;;7.13;5.63;;;230.40;2252.80;;;;;;4957973;28;20363;-83
2022/04/03 03:43:44;;;;;;;8.15;6.50;;;230.40;2252.80;;;;;;4961073;28;20030;-78
2022/04/03 03:46:10;;;;;;;7.10;5.75;;;230.80;2252.80;;;;;;4962408;28;20038;-80
2022/04/03 03:48:37;;;;;;;8.32;6.38;;;205.70;2252.80;;;;;;4979266;28;20106;-82
2022/04/03 03:51:03;;;;;;;9.18;6.15;;;205.70;2252.80;;;;;;4962233;28;20015;-79
2022/04/03 03:53:30;;;;;;;8.23;6.80;;;205.70;2252.80;;;;;;4962305;28;20103;-79
2022/04/03 03:55:56;;;;;;;6.85;5.50;;;205.60;2252.80;;;;;;4961259;28;20030;-79
2022/04/03 03:58:22;;;;;;;9.00;7.72;;;205.60;2252.80;;;;;;4961938;28;20363;-79
2022/04/03 04:00:48;;;;;;;9.68;6.80;;;205.40;2252.80;;;;;;4961719;28;20169;-80
2022/04/03 04:03:14;;;;;;;9.75;6.88;;;205.30;2252.80;;;;;;4961363;28;20070;-79
2022/04/03 04:05:40;;;;;;;9.73;6.85;;;205.20;2252.80;;;;;;4961540;28;20078;-79
2022/04/03 04:08:10;;;;;;;8.48;6.30;;;205.60;2252.80;;;;;;4961642;28;20077;-81
2022/04/03 04:10:36;;;;;;;9.63;6.20;;;205.40;2252.80;;;;;;4961900;28;20121;-84
2022/04/03 04:13:03;;;;;;;8.73;6.70;;;205.40;2252.80;;;;;;4961957;28;20030;-78
2022/04/03 04:15:30;;;;;;;9.85;7.28;;;205.30;2252.80;;;;;;4961786;28;20383;-81
2022/04/03 04:17:56;;;;;;;9.15;6.75;;;205.30;2252.80;;;;;;4962120;28;20022;-83
2022/04/03 04:20:23;;;;;;;11.13;8.55;;;205.10;2252.80;;;;;;4961828;28;20029;-81
2022/04/03 04:22:50;;;;;;;10.95;8.52;;;205.00;2252.80;;;;;;4961597;28;20019;-80
2022/04/03 04:25:18;;;;;;;12.82;8.27;;;205.00;2252.80;;;;;;4961674;28;20027;-78
2022/04/03 04:27:46;;;;;;;13.35;8.55;;;204.90;2252.80;;;;;;4961829;28;20474;-80
2022/04/03 04:30:16;;;;;;;12.15;9.63;;;204.80;2252.80;;;;;;4961870;28;20023;-78
2022/04/03 04:32:42;;;;;;;12.18;9.85;;;204.80;2252.80;;;;;;4978898;28;20046;-80
2022/04/03 04:35:09;;;;;;;14.73;10.32;;;180.10;2252.80;;;;;;4978877;28;20114;-79
2022/04/03 04:37:35;;;;;;;13.02;10.90;;;205.10;2252.80;;;;;;4977346;28;20550;-79
2022/04/03 04:40:01;;;;;;;12.95;10.40;;;204.80;2252.80;;;;;;4961436;28;20066;-79
2022/04/03 04:42:28;;;;;;;14.88;11.48;;;204.90;2252.80;;;;;;4961717;28;20113;-80
2022/04/03 04:44:54;;;;;;;19.30;11.27;;;205.00;2252.80;;;;;;4961630;28;20463;-80
2022/04/03 04:47:20;;;;;;;11.93;10.68;;;204.90;2252.80;;;;;;4961615;28;20018;-80
2022/04/03 04:49:46;;;;;;;12.02;9.18;;;180.10;2252.80;;;;;;4961846;28;20379;-81
2022/04/03 04:52:12;;;;;;;10.45;8.90;;;180.10;2252.80;;;;;;4961327;28;20058;-78
2022/04/03 04:54:38;;;;;;;13.43;9.55;;;180.00;2252.80;;;;;;4960520;28;20437;-76
2022/04/03 04:57:04;;;;;;;11.10;9.18;;;179.90;2252.80;;;;;;4961058;28;20023;-78
2022/04/03 04:59:30;;;;;;;10.65;8.57;;;180.00;2252.80;;;;;;4978741;28;20065;-77
2022/04/03 05:01:59;;;;;;;14.30;9.20;;;179.90;2252.80;;;;;;4961456;28;20046;-80
2022/04/03 05:04:25;;;;;;;11.00;9.70;;;180.00;2252.80;;;;;;4960636;28;20022;-78
2022/04/03 05:06:51;;;;;;;10.20;8.90;;;180.00;2252.80;;;;;;4961620;28;20026;-78
2022/04/03 05:09:18;;;;;;;11.05;9.80;;;179.90;2252.80;;;;;;4961679;28;20026;-78
2022/04/03 05:11:47;;;;;;;16.65;12.23;;;179.90;2252.80;;;;;;4961163;28;20470;-77
2022/04/03 05:14:13;;;;;;;16.60;12.48;;;179.80;2252.80;;;;;;4961180;28;20106;-79
2022/04/03 05:16:40;;;;;;;15.80;12.90;;;179.90;2252.80;;;;;;4961283;28;20082;-82
2022/04/03 05:19:06;;;;;;;19.23;14.60;;;179.80;2252.80;;;;;;4961403;28;20034;-80
2022/04/03 05:21:33;;;;;;;20.20;17.70;;;180.00;2252.80;;;;;;4961386;28;20026;-77
2022/04/03 05:23:59;;;;;;;30.98;28.27;;;180.10;2252.80;;;;;;4960686;28;20109;-77
2022/04/03 05:26:25;;;;;;;19.88;15.95;;;179.90;2252.80;;;;;;4960840;28;20078;-80
2022/04/03 05:28:51;;;;;;;18.92;14.77;;;179.90;2252.80;;;;;;4961065;28;20470;-80
2022/04/03 05:31:17;;;;;;;19.02;16.92;;;180.00;2252.80;;;;;;4960731;28;20030;-78
2022/04/03 05:33:43;;;;;;;22.17;17.65;;;204.90;2252.80;;;;;;4960262;28;20105;-80
2022/04/03 05:36:09;;;;;;;20.73;17.05;;;204.80;2252.80;;;;;;4959831;28;20590;-82
2022/04/03 05:38:35;;;;;;;21.77;18.20;;;205.00;2252.80;;;;;;4960182;28;20022;-80
2022/04/03 05:41:01;;;;;;;21.35;17.20;;;205.00;2252.80;;;;;;4956735;29;20118;-84
2022/04/03 05:43:27;;;;;;;19.23;15.68;;;205.00;2252.80;;;;;;4956641;28;20106;-79
2022/04/03 05:45:53;;;;;;;24.70;19.85;;;205.10;2252.80;;;;;;4956881;29;20035;-79
2022/04/03 05:48:19;;;;;;;30.67;27.52;;;204.90;2252.80;;;;;;4956287;28;20023;-82
2022/04/03 05:50:45;;;;;;;19.00;16.60;;;204.90;2252.80;;;;;;4956338;28;20030;-76
2022/04/03 05:53:12;;;;;;;30.85;27.63;;;205.00;2252.80;;;;;;4970466;28;20015;-78
2022/04/03 05:55:38;;;;;;;22.00;16.35;;;205.00;2252.80;;;;;;4977080;28;20035;-80
2022/04/03 05:58:04;;;;;;;18.38;15.13;;;204.90;2252.80;;;;;;4956769;28;20019;-80
2022/04/03 06:00:31;;;;;;;23.08;17.08;;;180.10;2252.80;;;;;;4956843;29;20027;-78
2022/04/03 06:03:02;;;;;;;28.45;16.60;;;180.10;2252.80;;;;;;4956176;28;20082;-79
2022/04/03 06:05:31;;;;;;;23.23;19.08;;;180.10;2252.80;;;;;;4955853;28;20060;-77
2022/04/03 06:07:57;;;;;;;26.13;20.42;;;180.10;2252.80;;;;;;4955570;29;20110;-83
2022/04/03 06:10:25;;;;;;;17.98;14.07;;;204.80;2252.80;;;;;;4955574;29;20027;-78
2022/04/03 06:12:58;;;;;;;20.55;15.25;;;180.10;2252.80;;;;;;4955955;29;20019;-80
2022/04/03 06:15:26;;;;;;;18.42;14.30;;;204.80;2252.80;;;;;;4955706;29;20038;-83
2022/04/03 06:17:53;;;;;;;23.08;18.10;;;204.90;2252.80;;;;;;4956937;29;20027;-79
2022/04/03 06:20:20;;;;;;;23.40;18.30;;;204.80;2252.80;;;;;;4955981;28;20034;-81
2022/04/03 06:22:47;;;;;;;23.88;19.52;;;204.80;2252.80;;;;;;4955472;28;20376;-81
2022/04/03 06:25:14;;;;;;;28.13;20.95;;;204.90;2252.80;;;;;;4955735;29;20101;-81
2022/04/03 06:27:41;;;;;;;22.85;18.08;;;205.00;2252.80;;;;;;4955760;29;20109;-80
2022/04/03 06:30:08;;;;;;;27.55;20.77;;;204.90;2252.80;;;;;;4955640;29;20024;-80
2022/04/03 06:32:34;;;;;;;25.42;21.40;;;204.80;2252.80;;;;;;4956090;28;20448;-79
2022/04/03 06:35:00;;;;;;;30.02;21.83;;;205.20;2252.80;;;;;;4956373;29;20039;-78
2022/04/03 06:37:26;;;;;;;25.73;19.40;;;205.20;2252.80;;;;;;4956376;29;20027;-81
2022/04/03 06:39:52;;;;;;;26.92;20.20;;;180.10;2252.80;;;;;;4955978;28;20439;-76
2022/04/03 06:42:21;;;;;;;28.65;22.13;;;180.00;2252.80;;;;;;4956127;28;20023;-83
2022/04/03 06:44:47;;;;;;;27.27;21.60;;;180.00;2252.80;;;;;;4955800;29;20434;-81
2022/04/03 06:47:13;;;;;;;45.50;28.20;;;204.80;2252.80;;;;;;4956024;29;20023;-81
2022/04/03 06:49:40;;;;;;;35.60;26.27;;;180.10;2252.80;;;;;;4955450;28;20028;-78
2022/04/03 06:52:09;;;;;;;37.47;25.13;;;180.10;2252.80;;;;;;4955977;29;20034;-81
2022/04/03 06:54:36;;;;;;;41.47;27.73;;;180.10;2252.80;;;;;;4956099;29;20110;-82
2022/04/03 06:57:02;;;;;;;34.70;25.33;;;180.10;2252.80;;;;;;4955870;29;20372;-81
2022/04/03 06:59:29;;;;;;;34.38;25.00;;;180.00;2252.80;;;;;;4956624;29;20019;-80
2022/04/03 07:01:55;;;;;;;33.15;25.70;;;179.90;2252.80;;;;;;4956098;29;20091;-81
2022/04/03 07:04:21;;;;;;;33.65;24.45;;;179.90;2252.80;;;;;;4955916;29;20456;-78
2022/04/03 07:06:47;;;;;;;28.60;22.17;;;179.80;2252.80;;;;;;4956139;29;20027;-78
2022/04/03 07:09:14;;;;;;;30.33;20.77;;;179.90;2252.80;;;;;;4955912;29;20019;-81
2022/04/03 07:11:40;;;;;;;30.98;23.40;;;179.90;2252.80;;;;;;4955191;29;20419;-81
2022/04/03 07:14:06;;;;;;;30.13;22.20;;;179.90;2252.80;;;;;;4955667;28;20518;-77
2022/04/03 07:16:32;;;;;;;27.50;21.20;;;179.90;2252.80;;;;;;4955582;29;20086;-78
2022/04/03 07:18:58;;;;;;;24.45;19.58;;;180.00;2252.80;;;;;;4954628;28;20114;-79
2022/04/03 07:21:24;;;;;;;23.42;17.67;;;180.00;2252.80;;;;;;4955257;29;20081;-79
2022/04/03 07:23:50;;;;;;;23.35;19.40;;;180.00;2252.80;;;;;;4955211;29;20062;-83
2022/04/03 07:26:16;;;;;;;26.67;19.80;;;180.00;2252.80;;;;;;4955306;29;20027;-80
2022/04/03 07:28:42;;;;;;;24.67;18.65;;;180.10;2252.80;;;;;;4955182;29;20023;-81
2022/04/03 07:31:08;;;;;;;21.80;17.65;;;180.10;2252.80;;;;;;4955010;29;20054;-80
2022/04/03 07:33:35;;;;;;;33.08;22.98;;;180.00;2252.80;;;;;;4954725;29;20028;-81
2022/04/03 07:36:02;;;;;;;37.80;26.75;;;180.10;2252.80;;;;;;4954953;29;20028;-78
2022/04/03 07:38:28;;;;;;;27.77;20.52;;;180.10;2252.80;;;;;;4954316;29;20024;-78
2022/04/03 07:40:54;;;;;;;21.33;16.83;;;204.80;2252.80;;;;;;4954480;29;20050;-79
2022/04/03 07:43:20;;;;;;;22.30;16.70;;;204.80;2252.80;;;;;;4954946;29;20062;-81
2022/04/03 07:45:46;;;;;;;31.23;20.90;;;180.10;2252.80;;;;;;4954826;28;20363;-81
2022/04/03 07:48:13;;;;;;;29.73;23.67;;;204.90;2252.80;;;;;;4954681;29;20034;-79
2022/04/03 07:50:39;;;;;;;29.33;24.75;;;204.90;2252.80;;;;;;4954775;29;20030;-82
2022/04/03 07:53:05;;;;;;;30.42;25.13;;;205.00;2252.80;;;;;;4954477;28;20027;-78
2022/04/03 07:55:31;;;;;;;27.50;21.40;;;204.90;2252.80;;;;;;4954653;29;20121;-80
2022/04/03 07:57:57;;;;;;;31.77;24.42;;;204.90;2252.80;;;;;;4954651;29;20027;-79
2022/04/03 08:00:23;;;;;;;30.70;25.05;;;204.90;2252.80;;;;;;4954266;29;20019;-80
2022/04/03 08:02:49;;;;;;;27.52;21.45;;;204.80;2252.80;;;;;;4954577;29;20476;-81
2022/04/03 08:05:15;;;;;;;24.25;19.58;;;204.90;2252.80;;;;;;4954405;29;20079;-80
2022/04/03 08:07:46;;;;;;;30.63;25.15;;;205.00;2252.80;;;;;;4954297;28;20019;-79
2022/04/03 08:10:15;;;;;;;24.38;19.13;;;205.10;2252.80;;;;;;4954923;29;20114;-79
2022/04/03 08:12:43;;;;;;;27.35;19.10;;;205.20;2252.80;;;;;;4954388;29;20408;-80
2022/04/03 08:15:10;;;;;;;648.28;334.45;;;205.20;2252.80;;;;;;4954013;29;20030;-79
2022/04/03 08:17:40;;;;;;;398.30;190.38;;;205.30;2252.80;;;;;;4954153;29;20063;-78
2022/04/03 08:20:11;;;;;;;109.00;58.35;;;205.40;2252.80;;;;;;4954156;28;20118;-78
2022/04/03 08:22:39;;;;;;;20.45;14.65;;;205.60;2252.80;;;;;;4953960;29;20038;-80
2022/04/03 08:25:06;;;;;;;26.27;18.10;;;205.30;2252.80;;;;;;4954069;29;20121;-79
2022/04/03 08:27:46;;;;;;;19.25;14.40;;;205.20;2252.80;;;;;;4953678;29;20368;-80
2022/04/03 08:30:14;;;;;;;29.05;23.13;;;205.10;2252.80;;;;;;4957083;28;20058;-79
2022/04/03 08:32:42;;;;;;;21.85;16.52;;;205.10;2252.80;;;;;;4958011;29;20071;-82
2022/04/03 08:35:09;;;;;;;21.17;17.30;;;205.30;2252.80;;;;;;4957438;29;20031;-82
2022/04/03 08:37:35;;;;;;;21.85;17.70;;;205.40;2252.80;;;;;;4957581;29;20026;-76
2022/04/03 08:40:05;;;;;;;17.08;14.27;;;205.40;2252.80;;;;;;4957086;29;20043;-78
2022/04/03 08:42:32;;;;;;;24.67;18.70;;;205.40;2252.80;;;;;;4957207;28;20082;-77
2022/04/03 08:44:58;;;;;;;34.00;26.40;;;205.40;2252.80;;;;;;4957407;28;20027;-81
2022/04/03 08:47:26;;;;;;;43.15;29.23;;;205.40;2252.80;;;;;;4957337;29;20046;-75
2022/04/03 08:49:57;;;;;;;34.88;22.17;;;205.40;2252.80;;;;;;4957119;29;20026;-77
2022/04/03 08:52:23;;;;;;;21.05;17.70;;;205.40;2252.80;;;;;;4957357;29;20085;-77
2022/04/03 08:54:49;;;;;;;41.65;28.77;;;205.50;2252.80;;;;;;4957270;29;20019;-75
2022/04/03 08:57:15;;;;;;;34.90;23.42;;;205.40;2252.80;;;;;;4956969;29;20027;-77
2022/04/03 08:59:43;;;;;;;28.52;22.20;;;205.40;2252.80;;;;;;4957152;29;20023;-80
2022/04/03 09:02:13;;;;;;;31.13;23.20;;;205.20;2252.80;;;;;;4957281;29;20034;-77
2022/04/03 09:04:39;;;;;;;21.85;17.92;;;205.40;2252.80;;;;;;4957005;29;20026;-78
2022/04/03 09:07:05;;;;;;;31.25;24.20;;;205.30;2252.80;;;;;;4957272;28;20023;-77
2022/04/03 09:09:32;;;;;;;30.15;22.27;;;205.40;2252.80;;;;;;4957028;29;20034;-81
2022/04/03 09:12:15;;;;;;;30.30;24.02;;;205.50;2252.80;;;;;;4957144;29;20030;-81
2022/04/03 09:14:46;;;;;;;39.53;33.53;;;205.70;2252.80;;;;;;4957692;29;20023;-76
2022/04/03 09:17:13;;;;;;;36.20;29.88;;;230.40;2252.80;;;;;;4981685;28;20023;-75
2022/04/03 09:19:39;;;;;;;23.88;19.38;;;230.50;2252.80;;;;;;4965431;28;20034;-75
2022/04/03 09:22:05;;;;;;;21.23;17.65;;;230.50;2252.80;;;;;;4957665;29;20024;-77
2022/04/03 09:24:34;;;;;;;21.88;16.80;;;230.40;2252.80;;;;;;4957470;29;20023;-77
2022/04/03 09:27:03;;;;;;;26.83;23.33;;;230.40;2252.80;;;;;;4957304;28;20031;-81
2022/04/03 09:29:29;;;;;;;25.33;21.08;;;230.50;2252.80;;;;;;4957124;28;20047;-78
2022/04/03 09:32:00;;;;;;;19.83;15.30;;;230.70;2252.80;;;;;;4956670;29;20027;-79
2022/04/03 09:34:29;;;;;;;35.28;29.88;;;230.40;2252.80;;;;;;4947336;28;20019;-82
2022/04/03 09:36:59;;;;;;;47.40;31.08;;;230.40;2252.80;;;;;;4942606;29;20059;-78
2022/04/03 09:39:28;;;;;;;31.98;27.55;;;230.60;2252.80;;;;;;4937870;29;20461;-82
2022/04/03 09:42:11;;;;;;;33.70;24.98;;;230.50;2252.80;;;;;;4937447;29;20024;-83
2022/04/03 09:44:46;;;;;;;40.28;28.55;;;230.60;2252.80;;;;;;4921925;29;20024;-82
2022/04/03 09:47:35;;;;;;;37.70;26.85;;;230.70;2252.80;;;;;;4938565;29;20030;-80
2022/04/03 09:50:04;;;;;;;34.28;26.10;;;230.70;2252.80;;;;;;4938032;29;20166;-80
2022/04/03 09:52:39;;;;;;;34.78;26.42;;;230.70;2252.80;;;;;;4937383;29;20015;-82
2022/04/03 09:55:32;;;;;;;39.88;28.85;;;230.70;2252.80;;;;;;4939784;29;20038;-81
2022/04/03 09:58:16;;;;;;;53.63;37.47;;;230.60;2252.80;;;;;;4941696;29;20144;-85
2022/04/03 10:00:44;;;;;;;46.38;33.33;;;230.60;2252.80;;;;;;4940130;29;20063;-81
2022/04/03 10:03:12;;;;;;;49.20;34.47;;;230.60;2252.80;;;;;;4922910;29;20028;-86
2022/04/03 10:05:39;;;;;;;58.85;40.42;;;230.60;2252.80;;;;;;4922738;29;20031;-82
2022/04/03 10:08:15;;;;;;;98.00;60.90;;;230.60;2252.80;;;;;;4923560;29;20027;-85
2022/04/03 10:10:45;;;;;;;69.13;46.70;;;230.60;2252.80;;;;;;4949031;29;20032;-85
2022/04/03 10:13:12;;;;;;;33.42;25.23;;;230.60;2252.80;;;;;;4938731;29;20087;-83
2022/04/03 10:15:38;;;;;;;55.65;39.78;;;230.60;2252.80;;;;;;4938943;29;20064;-83
2022/04/03 10:18:05;;;;;;;41.20;29.42;;;230.60;2252.80;;;;;;4922504;29;20361;-86
2022/04/03 10:20:36;;;;;;;29.67;22.35;;;230.70;2252.80;;;;;;4938036;29;20031;-80
2022/04/03 10:23:12;;;;;;;29.55;20.80;;;231.00;2252.80;;;;;;4937079;29;20110;-83
2022/04/03 10:25:44;;;;;;;31.83;25.63;;;231.00;2252.80;;;;;;4937867;29;20028;-83
2022/04/03 10:28:11;;;;;;;28.10;21.35;;;231.00;2252.80;;;;;;4923164;29;20034;-82
2022/04/03 10:31:00;;;;;;;22.20;16.55;;;231.00;2252.80;;;;;;4938196;29;20091;-82
2022/04/03 10:33:44;;;;;;;20.48;16.55;;;230.80;2252.80;;;;;;4936642;29;20114;-81
2022/04/03 10:36:17;;;;;;;22.70;18.42;;;230.60;2252.80;;;;;;4920704;29;20472;-81
2022/04/03 10:38:47;;;;;;;29.58;26.38;;;230.70;2252.80;;;;;;4936773;29;20042;-82
2022/04/03 10:41:31;;;;;;;27.65;22.35;;;230.90;2252.80;;;;;;4938897;29;20037;-82
2022/04/03 10:44:18;;;;;;;28.48;23.27;;;230.90;2252.80;;;;;;4939520;29;20053;-84
2022/04/03 10:47:02;;;;;;;34.67;26.95;;;230.90;2252.80;;;;;;4939530;29;20034;-85
2022/04/03 10:49:37;;;;;;;25.45;19.30;;;230.90;2252.80;;;;;;4938880;29;20019;-84
2022/04/03 10:52:03;;;;;;;23.13;19.20;;;230.90;2252.80;;;;;;4938866;29;20027;-79
2022/04/03 10:54:31;;;;;;;29.27;23.50;;;230.80;2252.80;;;;;;4940152;29;20023;-81
2022/04/03 10:57:38;;;;;;;25.20;18.15;;;230.80;2252.80;;;;;;4941075;29;20027;-80
2022/04/03 11:00:13;;;;;;;28.13;21.75;;;230.60;2252.80;;;;;;4939253;29;20391;-82
2022/04/03 11:03:22;;;;;;;45.42;31.73;;;230.80;2252.80;;;;;;4938762;29;20019;-79
2022/04/03 11:05:51;;;;;;;22.95;18.70;;;230.80;2252.80;;;;;;4939193;29;20027;-78
2022/04/03 11:08:18;;;;;;;22.35;17.13;;;230.80;2252.80;;;;;;4938953;29;20034;-79
2022/04/03 11:10:58;;;;;;;26.67;20.90;;;231.00;2252.80;;;;;;4940583;29;20027;-80
2022/04/03 11:13:38;;;;;;;44.13;32.17;;;231.20;2252.80;;;;;;4940230;29;20034;-80
2022/04/03 11:16:11;;;;;;;61.90;49.80;;;230.80;2252.80;;;;;;4957619;29;20042;-81
2022/04/03 11:18:47;;;;;;;37.05;31.33;;;230.80;2252.80;;;;;;4940055;29;20027;-80
2022/04/03 11:21:18;;;;;;;23.63;20.00;;;230.90;2252.80;;;;;;4939793;29;20023;-81
2022/04/03 11:24:02;;;;;;;24.17;19.38;;;230.90;2252.80;;;;;;4939813;29;20455;-81
2022/04/03 11:26:29;;;;;;;19.95;17.05;;;230.90;2252.80;;;;;;4941209;29;20078;-77
2022/04/03 11:28:56;;;;;;;37.63;31.52;;;230.90;2252.80;;;;;;4942885;29;20023;-79
2022/04/03 11:31:22;;;;;;;24.52;20.08;;;230.70;2252.80;;;;;;4942522;29;20448;-80
2022/04/03 11:33:48;;;;;;;16.75;14.95;;;230.80;2252.80;;;;;;4942186;29;20035;-80
2022/04/03 11:36:21;;;;;;;46.67;29.55;;;230.80;2252.80;;;;;;4941277;29;20031;-79
2022/04/03 11:38:48;;;;;;;;;;;231.00;2252.80;;;;;;4940770;28;20032;-84
2022/04/03 11:41:28;;;;;;;24.80;16.77;;;231.00;2252.80;;;;;;4939230;29;19903;-82
2022/04/03 11:44:10;;;;;;;34.92;26.40;;;231.00;2252.80;;;;;;4924168;29;20031;-84
2022/04/03 11:46:44;;;;;;;36.72;28.40;;;231.20;2252.80;;;;;;4940432;29;20015;-82
2022/04/03 11:49:33;;;;;;;39.05;28.13;;;256.00;2252.80;;;;;;4941676;29;20117;-84
2022/04/03 11:52:11;;;;;;;32.70;23.60;;;256.10;2252.80;;;;;;4942907;29;20026;-83
2022/04/03 11:54:38;;;;;;;26.83;20.65;;;256.10;2252.80;;;;;;4940309;29;20046;-81
2022/04/03 11:57:10;;;;;;;41.85;30.77;;;256.10;2252.80;;;;;;4939705;29;20499;-80
2022/04/03 11:59:45;;;;;;;26.20;21.30;;;256.20;2252.80;;;;;;4924451;29;20027;-81
2022/04/03 12:02:15;;;;;;;26.50;18.83;;;256.30;2252.80;;;;;;4938992;29;20116;-82
2022/04/03 12:04:45;;;;;;;25.38;19.95;;;256.40;2252.80;;;;;;4941448;29;20024;-82
2022/04/03 12:07:36;;;;;;;30.35;21.15;;;256.60;2252.80;;;;;;4959165;29;20034;-83
2022/04/03 12:10:26;;;;;;;31.58;21.88;;;256.80;2252.80;;;;;;4945084;29;20098;-82
2022/04/03 12:13:00;;;;;;;47.40;30.95;;;256.90;2252.80;;;;;;4944803;28;20031;-83